createdAt,value
2023-08-01T00:01:34.455Z,17.23
2023-08-01T00:04:01.353Z,17.18
2023-08-01T00:06:28.096Z,17.12
2023-08-01T00:08:54.858Z,17.08
2023-08-01T00:11:21.549Z,17.06
2023-08-01T00:13:48.357Z,16.98
2023-08-01T00:16:15.197Z,16.93
2023-08-01T00:18:42.525Z,16.89
2023-08-01T00:21:12.628Z,16.84
2023-08-01T00:23:39.803Z,16.79
2023-08-01T00:26:06.873Z,16.75
2023-08-01T00:28:35.061Z,16.72
2023-08-01T00:31:06.355Z,16.68
2023-08-01T00:33:33.975Z,16.65
2023-08-01T00:36:00.807Z,16.64
2023-08-01T00:38:27.970Z,16.60
2023-08-01T00:40:54.674Z,16.57
2023-08-01T00:43:21.459Z,16.53
2023-08-01T00:45:48.447Z,16.49
2023-08-01T00:48:15.550Z,16.46
2023-08-01T00:50:42.636Z,16.43
2023-08-01T00:53:10.075Z,16.37
2023-08-01T00:55:37.805Z,16.34
2023-08-01T00:58:04.896Z,16.31
2023-08-01T01:00:31.938Z,16.27
2023-08-01T01:02:59.378Z,16.26
2023-08-01T01:05:28.677Z,16.25
2023-08-01T01:07:55.682Z,16.24
2023-08-01T01:10:22.837Z,16.23
2023-08-01T01:12:51.283Z,16.19
2023-08-01T01:15:18.089Z,16.16
2023-08-01T01:17:44.851Z,16.17
2023-08-01T01:20:12.152Z,16.19
2023-08-01T01:22:40.638Z,16.19
2023-08-01T01:25:08.461Z,16.21
2023-08-01T01:27:36.265Z,16.18
2023-08-01T01:30:05.344Z,16.15
2023-08-01T01:32:32.172Z,16.14
2023-08-01T01:34:58.981Z,16.16
2023-08-01T01:37:25.695Z,16.17
2023-08-01T01:39:52.414Z,16.17
2023-08-01T01:42:19.229Z,16.15
2023-08-01T01:44:45.962Z,16.16
2023-08-01T01:47:12.706Z,16.18
2023-08-01T01:49:39.461Z,16.20
2023-08-01T01:52:06.491Z,16.22
2023-08-01T01:54:33.276Z,16.24
2023-08-01T01:57:00.012Z,16.26
2023-08-01T01:59:26.801Z,16.28
2023-08-01T02:01:53.480Z,16.33
2023-08-01T02:04:21.136Z,16.34
2023-08-01T02:06:47.838Z,16.36
2023-08-01T02:09:14.725Z,16.35
2023-08-01T02:11:41.414Z,16.34
2023-08-01T02:14:08.113Z,16.34
2023-08-01T02:16:34.884Z,16.35
2023-08-01T02:19:01.620Z,16.34
2023-08-01T02:21:28.399Z,16.35
2023-08-01T02:23:55.177Z,16.34
2023-08-01T02:26:24.177Z,16.35
2023-08-01T02:28:51.275Z,16.36
2023-08-01T02:31:18.118Z,16.34
2023-08-01T02:33:44.929Z,16.36
2023-08-01T02:36:11.762Z,16.31
2023-08-01T02:38:38.468Z,16.29
2023-08-01T02:41:05.192Z,16.28
2023-08-01T02:43:31.948Z,16.25
2023-08-01T02:46:00.738Z,16.22
2023-08-01T02:48:27.452Z,16.19
2023-08-01T02:50:54.175Z,16.17
2023-08-01T02:53:21.006Z,16.08
2023-08-01T02:55:47.794Z,16.01
2023-08-01T02:58:14.531Z,15.95
2023-08-01T03:00:41.550Z,15.90
2023-08-01T03:03:08.534Z,15.89
2023-08-01T03:05:38.789Z,15.87
2023-08-01T03:08:05.993Z,15.85
2023-08-01T03:10:36.661Z,15.85
2023-08-01T03:13:04.487Z,15.83
2023-08-01T03:15:31.241Z,15.84
2023-08-01T03:17:58.153Z,15.80
2023-08-01T03:20:24.991Z,15.77
2023-08-01T03:22:52.046Z,15.76
2023-08-01T03:25:18.823Z,15.76
2023-08-01T03:27:45.549Z,15.76
2023-08-01T03:30:12.336Z,15.80
2023-08-01T03:32:39.109Z,15.85
2023-08-01T03:35:06.545Z,15.90
2023-08-01T03:37:33.797Z,15.95
2023-08-01T03:40:00.620Z,16.02
2023-08-01T03:42:27.419Z,16.09
2023-08-01T03:44:54.162Z,16.18
2023-08-01T03:47:20.839Z,16.26
2023-08-01T03:49:47.529Z,16.34
2023-08-01T03:52:14.212Z,16.41
2023-08-01T03:54:40.906Z,16.49
2023-08-01T03:57:07.649Z,16.61
2023-08-01T03:59:34.386Z,16.70
2023-08-01T04:02:01.108Z,16.76
2023-08-01T04:04:27.948Z,16.82
2023-08-01T04:06:54.647Z,16.87
2023-08-01T04:09:21.348Z,16.91
2023-08-01T04:11:48.092Z,17.00
2023-08-01T04:14:14.827Z,17.02
2023-08-01T04:16:41.717Z,17.02
2023-08-01T04:19:08.713Z,17.00
2023-08-01T04:21:35.453Z,17.00
2023-08-01T04:24:02.199Z,17.01
2023-08-01T04:26:28.960Z,17.01
2023-08-01T04:28:55.690Z,17.01
2023-08-01T04:31:22.547Z,17.03
2023-08-01T04:33:49.256Z,17.01
2023-08-01T04:36:15.966Z,17.06
2023-08-01T04:38:42.672Z,17.10
2023-08-01T04:41:09.360Z,17.13
2023-08-01T04:43:36.068Z,17.16
2023-08-01T04:46:02.801Z,17.21
2023-08-01T04:48:29.553Z,17.28
2023-08-01T04:50:56.277Z,17.37
2023-08-01T04:53:22.971Z,17.45
2023-08-01T04:55:49.724Z,17.49
2023-08-01T04:58:16.427Z,17.52
2023-08-01T05:00:43.592Z,17.61
2023-08-01T05:03:10.434Z,17.67
2023-08-01T05:05:37.383Z,17.75
2023-08-01T05:08:04.404Z,17.82
2023-08-01T05:10:31.138Z,17.89
2023-08-01T05:12:58.167Z,17.95
2023-08-01T05:15:25.041Z,18.01
2023-08-01T05:17:51.856Z,18.08
2023-08-01T05:20:18.549Z,18.11
2023-08-01T05:22:45.290Z,18.15
2023-08-01T05:25:12.018Z,18.20
2023-08-01T05:27:38.725Z,18.25
2023-08-01T05:30:05.928Z,18.32
2023-08-01T05:32:32.710Z,18.41
2023-08-01T05:34:59.479Z,18.52
2023-08-01T05:37:26.161Z,18.63
2023-08-01T05:39:52.937Z,18.75
2023-08-01T05:42:19.670Z,18.85
2023-08-01T05:44:46.360Z,18.98
2023-08-01T05:47:13.049Z,19.11
2023-08-01T05:49:39.810Z,19.24
2023-08-01T05:52:07.140Z,19.38
2023-08-01T05:54:34.163Z,19.48
2023-08-01T05:57:00.867Z,19.64
2023-08-01T05:59:28.031Z,19.77
2023-08-01T06:01:54.782Z,19.93
2023-08-01T06:04:21.608Z,20.03
2023-08-01T06:06:48.367Z,20.20
2023-08-01T06:09:15.126Z,20.27
2023-08-01T06:11:42.014Z,20.42
2023-08-01T06:14:08.792Z,20.58
2023-08-01T06:16:35.501Z,20.70
2023-08-01T06:19:02.627Z,20.91
2023-08-01T06:21:29.356Z,21.06
2023-08-01T06:23:56.063Z,21.18
2023-08-01T06:26:22.769Z,21.33
2023-08-01T06:28:49.523Z,21.39
2023-08-01T06:31:16.244Z,21.54
2023-08-01T06:33:43.056Z,21.66
2023-08-01T06:36:09.813Z,21.77
2023-08-01T06:38:36.591Z,21.91
2023-08-01T06:41:04.185Z,22.05
2023-08-01T06:43:30.986Z,22.18
2023-08-01T06:45:57.753Z,22.39
2023-08-01T06:48:24.515Z,22.53
2023-08-01T06:50:51.204Z,22.66
2023-08-01T06:53:17.947Z,22.80
2023-08-01T06:55:44.669Z,22.91
2023-08-01T06:58:11.389Z,23.08
2023-08-01T07:00:38.078Z,23.20
2023-08-01T07:03:04.897Z,23.33
2023-08-01T07:05:31.685Z,23.40
2023-08-01T07:07:59.254Z,23.49
2023-08-01T07:10:26.020Z,23.69
2023-08-01T07:12:52.710Z,23.89
2023-08-01T07:15:19.478Z,24.09
2023-08-01T07:17:46.283Z,24.34
2023-08-01T07:20:13.366Z,24.53
2023-08-01T07:22:40.168Z,24.84
2023-08-01T07:25:07.293Z,25.07
2023-08-01T07:27:34.026Z,25.19
2023-08-01T07:30:00.853Z,25.40
2023-08-01T07:32:27.633Z,25.66
2023-08-01T07:34:54.356Z,25.81
2023-08-01T07:37:21.169Z,26.03
2023-08-01T07:39:47.921Z,26.12
2023-08-01T07:42:14.663Z,26.10
2023-08-01T07:44:41.387Z,26.10
2023-08-01T07:47:08.073Z,26.11
2023-08-01T07:49:34.948Z,26.10
2023-08-01T07:52:01.670Z,26.43
2023-08-01T07:54:28.407Z,26.65
2023-08-01T07:56:55.140Z,26.91
2023-08-01T07:59:21.862Z,27.21
2023-08-01T08:01:49.315Z,27.55
2023-08-01T08:04:16.036Z,27.59
2023-08-01T08:06:43.077Z,27.32
2023-08-01T08:09:10.111Z,27.55
2023-08-01T08:11:36.850Z,27.45
2023-08-01T08:14:03.701Z,27.85
2023-08-01T08:16:31.134Z,28.17
2023-08-01T08:18:57.925Z,28.24
2023-08-01T08:21:24.623Z,27.98
2023-08-01T08:23:51.334Z,27.87
2023-08-01T08:26:18.424Z,27.92
2023-08-01T08:28:45.224Z,28.27
2023-08-01T08:31:12.189Z,28.51
2023-08-01T08:33:38.949Z,28.56
2023-08-01T08:36:05.739Z,28.24
2023-08-01T08:38:32.482Z,28.28
2023-08-01T08:41:11.799Z,28.74
2023-08-01T08:43:38.904Z,28.50
2023-08-01T08:46:06.373Z,28.68
2023-08-01T08:48:33.822Z,28.49
2023-08-01T08:51:02.063Z,28.86
2023-08-01T08:53:28.947Z,29.25
2023-08-01T08:55:55.778Z,29.36
2023-08-01T08:58:23.414Z,29.70
2023-08-01T09:00:50.654Z,29.55
2023-08-01T09:03:17.635Z,28.79
2023-08-01T09:06:01.242Z,29.33
2023-08-01T09:08:29.493Z,29.96
2023-08-01T09:10:56.282Z,30.01
2023-08-01T09:13:23.070Z,29.58
2023-08-01T09:15:50.180Z,29.60
2023-08-01T09:18:17.010Z,29.53
2023-08-01T09:20:48.683Z,29.52
2023-08-01T09:23:16.495Z,30.26
2023-08-01T09:25:43.881Z,30.82
2023-08-01T09:28:36.925Z,30.96
2023-08-01T09:31:03.686Z,31.11
2023-08-01T09:33:40.231Z,31.88
2023-08-01T09:36:10.639Z,31.96
2023-08-01T09:38:38.673Z,31.48
2023-08-01T09:41:05.665Z,31.65
2023-08-01T09:43:39.742Z,31.50
2023-08-01T09:46:08.253Z,31.14
2023-08-01T09:48:35.059Z,31.64
2023-08-01T09:51:19.208Z,32.27
2023-08-01T09:53:53.893Z,32.37
2023-08-01T09:56:25.560Z,32.95
2023-08-01T09:58:54.493Z,33.10
2023-08-01T10:01:23.139Z,32.98
2023-08-01T10:03:51.785Z,32.87
2023-08-01T10:06:23.747Z,33.34
2023-08-01T10:08:52.338Z,33.45
2023-08-01T10:11:21.119Z,34.13
2023-08-01T10:13:48.332Z,33.62
2023-08-01T10:16:16.037Z,33.76
2023-08-01T10:18:43.581Z,34.59
2023-08-01T10:21:13.283Z,33.92
2023-08-01T10:23:40.745Z,34.15
2023-08-01T10:26:08.795Z,33.63
2023-08-01T10:28:40.679Z,33.27
2023-08-01T10:31:15.820Z,33.60
2023-08-01T10:33:45.772Z,33.20
2023-08-01T10:36:23.929Z,33.03
2023-08-01T10:38:52.681Z,33.41
2023-08-01T10:41:26.077Z,33.89
2023-08-01T10:43:52.968Z,34.97
2023-08-01T10:46:19.812Z,34.54
2023-08-01T10:48:53.225Z,33.49
2023-08-01T10:51:20.236Z,33.07
2023-08-01T10:53:47.119Z,32.59
2023-08-01T10:56:18.598Z,32.57
2023-08-01T10:58:45.743Z,33.03
2023-08-01T11:01:12.501Z,32.97
2023-08-01T11:03:40.675Z,33.37
2023-08-01T11:06:07.669Z,33.00
2023-08-01T11:08:38.034Z,32.59
2023-08-01T11:11:07.215Z,32.46
2023-08-01T11:13:36.063Z,31.91
2023-08-01T11:16:07.267Z,31.20
2023-08-01T11:18:46.481Z,31.02
2023-08-01T11:21:13.324Z,30.57
2023-08-01T11:23:40.007Z,30.51
2023-08-01T11:26:12.256Z,30.26
2023-08-01T11:28:39.084Z,30.34
2023-08-01T11:31:15.190Z,30.51
2023-08-01T11:33:41.990Z,31.28
2023-08-01T11:36:09.323Z,31.98
2023-08-01T11:38:36.045Z,32.36
2023-08-01T11:41:04.537Z,32.19
2023-08-01T11:43:41.975Z,32.43
2023-08-01T11:46:08.764Z,32.71
2023-08-01T11:48:36.358Z,33.01
2023-08-01T11:51:03.346Z,33.06
2023-08-01T11:53:30.605Z,32.73
2023-08-01T11:55:58.063Z,33.12
2023-08-01T11:58:31.615Z,33.15
2023-08-01T12:01:11.984Z,33.32
2023-08-01T12:03:49.650Z,32.89
2023-08-01T12:06:18.733Z,33.05
2023-08-01T12:08:47.053Z,33.08
2023-08-01T12:11:25.154Z,33.38
2023-08-01T12:14:08.035Z,33.43
2023-08-01T12:16:34.816Z,33.01
2023-08-01T12:19:01.862Z,32.51
2023-08-01T12:21:29.918Z,31.89
2023-08-01T12:23:56.667Z,31.51
2023-08-01T12:26:24.164Z,31.43
2023-08-01T12:28:51.023Z,31.29
2023-08-01T12:31:21.778Z,31.18
2023-08-01T12:33:49.005Z,31.17
2023-08-01T12:36:16.058Z,31.29
2023-08-01T12:38:42.856Z,31.41
2023-08-01T12:41:09.647Z,31.36
2023-08-01T12:43:36.451Z,31.69
2023-08-01T12:46:03.353Z,31.50
2023-08-01T12:48:30.242Z,31.47
2023-08-01T12:50:57.248Z,31.27
2023-08-01T12:53:24.359Z,31.30
2023-08-01T12:55:52.168Z,31.35
2023-08-01T12:58:19.101Z,31.03
2023-08-01T13:00:46.438Z,31.28
2023-08-01T13:03:13.824Z,31.91
2023-08-01T13:05:42.474Z,31.85
2023-08-01T13:08:10.317Z,31.51
2023-08-01T13:10:39.104Z,31.38
2023-08-01T13:13:06.401Z,31.37
2023-08-01T13:15:34.574Z,31.64
2023-08-01T13:18:02.005Z,31.60
2023-08-01T13:20:30.805Z,31.44
2023-08-01T13:22:58.371Z,31.72
2023-08-01T13:25:25.110Z,31.83
2023-08-01T13:27:51.838Z,31.90
2023-08-01T13:30:21.649Z,31.89
2023-08-01T13:32:48.353Z,31.90
2023-08-01T13:35:15.597Z,31.94
2023-08-01T13:37:42.426Z,32.00
2023-08-01T13:40:11.550Z,32.69
2023-08-01T13:42:38.447Z,33.16
2023-08-01T13:45:05.669Z,34.57
2023-08-01T13:47:32.492Z,35.80
2023-08-01T13:49:59.339Z,36.08
2023-08-01T13:52:26.091Z,36.53
2023-08-01T13:54:52.827Z,36.92
2023-08-01T13:57:19.579Z,37.27
2023-08-01T13:59:55.233Z,37.45
2023-08-01T14:02:30.618Z,36.39
2023-08-01T14:04:57.417Z,36.15
2023-08-01T14:07:24.199Z,35.45
2023-08-01T14:09:50.936Z,35.37
2023-08-01T14:12:20.183Z,36.14
2023-08-01T14:14:47.113Z,38.26
2023-08-01T14:17:13.835Z,40.97
2023-08-01T14:19:40.538Z,42.82
2023-08-01T14:22:07.307Z,40.33
2023-08-01T14:24:34.063Z,39.93
2023-08-01T14:27:00.751Z,39.71
2023-08-01T14:29:27.532Z,39.95
2023-08-01T14:31:54.332Z,39.57
2023-08-01T14:34:21.088Z,38.34
2023-08-01T14:36:48.087Z,36.55
2023-08-01T14:39:22.466Z,35.88
2023-08-01T14:44:20.609Z,35.05
2023-08-01T14:46:47.524Z,34.43
2023-08-01T14:49:14.380Z,34.12
2023-08-01T14:51:41.066Z,33.43
2023-08-01T14:54:07.830Z,33.55
2023-08-01T14:56:34.642Z,33.22
2023-08-01T14:59:01.373Z,32.88
2023-08-01T15:01:28.277Z,32.65
2023-08-01T15:03:55.196Z,32.40
2023-08-01T15:06:21.975Z,32.13
2023-08-01T15:08:48.788Z,31.75
2023-08-01T15:11:16.654Z,31.45
2023-08-01T15:13:43.397Z,31.36
2023-08-01T15:16:12.731Z,31.19
2023-08-01T15:18:40.955Z,30.99
2023-08-01T15:21:07.736Z,30.88
2023-08-01T15:23:34.482Z,30.87
2023-08-01T15:26:01.250Z,30.55
2023-08-01T15:28:28.026Z,30.15
2023-08-01T15:31:04.602Z,29.73
2023-08-01T15:33:33.736Z,29.21
2023-08-01T15:36:05.720Z,28.77
2023-08-01T15:38:33.644Z,28.44
2023-08-01T15:41:03.957Z,27.98
2023-08-01T15:43:31.266Z,27.60
2023-08-01T15:45:58.077Z,27.34
2023-08-01T15:48:24.854Z,27.02
2023-08-01T15:50:51.584Z,26.63
2023-08-01T15:53:18.269Z,26.17
2023-08-01T15:55:45.008Z,25.73
2023-08-01T15:58:11.762Z,25.22
2023-08-01T16:00:38.943Z,24.81
2023-08-01T16:03:06.160Z,24.38
2023-08-01T16:05:33.030Z,24.03
2023-08-01T16:08:00.437Z,23.67
2023-08-01T16:10:27.234Z,23.17
2023-08-01T16:12:53.961Z,22.80
2023-08-01T16:15:20.708Z,22.63
2023-08-01T16:17:47.441Z,22.39
2023-08-01T16:20:15.785Z,22.34
2023-08-01T16:22:44.192Z,22.26
2023-08-01T16:25:11.174Z,22.26
2023-08-01T16:27:37.927Z,22.08
2023-08-01T16:30:05.147Z,21.87
2023-08-01T16:32:32.033Z,21.67
2023-08-01T16:34:58.743Z,21.55
2023-08-01T16:37:25.454Z,21.22
2023-08-01T16:39:52.227Z,20.90
2023-08-01T16:42:18.953Z,20.68
2023-08-01T16:44:45.675Z,20.55
2023-08-01T16:47:21.415Z,20.48
2023-08-01T16:49:55.978Z,20.32
2023-08-01T16:52:23.350Z,20.26
2023-08-01T16:54:50.085Z,20.20
2023-08-01T16:57:16.852Z,20.16
2023-08-01T16:59:43.679Z,20.05
2023-08-01T17:02:11.305Z,19.80
2023-08-01T17:04:38.228Z,19.64
2023-08-01T17:07:05.370Z,19.59
2023-08-01T17:09:32.598Z,19.55
2023-08-01T17:11:59.665Z,19.46
2023-08-01T17:14:26.502Z,19.39
2023-08-01T17:16:53.274Z,19.37
2023-08-01T17:19:20.006Z,19.37
2023-08-01T17:21:46.769Z,19.33
2023-08-01T17:24:13.561Z,19.33
2023-08-01T17:26:40.963Z,19.27
2023-08-01T17:29:08.568Z,19.21
2023-08-01T17:31:35.720Z,19.16
2023-08-01T17:34:03.004Z,19.07
2023-08-01T17:36:29.755Z,19.02
2023-08-01T17:38:56.527Z,18.90
2023-08-01T17:41:30.362Z,18.83
2023-08-01T17:43:59.495Z,18.79
2023-08-01T17:46:26.472Z,18.68
2023-08-01T17:48:53.585Z,18.63
2023-08-01T17:51:20.627Z,18.57
2023-08-01T17:53:48.031Z,18.57
2023-08-01T17:56:16.094Z,18.59
2023-08-01T17:58:42.933Z,18.61
2023-08-01T18:01:10.134Z,18.63
2023-08-01T18:03:37.927Z,18.66
2023-08-01T18:06:15.461Z,18.65
2023-08-01T18:08:43.696Z,18.64
2023-08-01T18:11:15.213Z,18.62
2023-08-01T18:13:42.617Z,18.60
2023-08-01T18:16:09.607Z,18.55
2023-08-01T18:18:37.501Z,18.46
2023-08-01T18:21:09.004Z,18.38
2023-08-01T18:23:37.320Z,18.39
2023-08-01T18:26:04.834Z,18.40
2023-08-01T18:28:31.631Z,18.41
2023-08-01T18:30:59.078Z,18.42
2023-08-01T18:33:27.684Z,18.43
2023-08-01T18:35:54.383Z,18.40
2023-08-01T18:38:21.055Z,18.40
2023-08-01T18:40:48.136Z,18.43
2023-08-01T18:43:14.899Z,18.38
2023-08-01T18:45:41.686Z,18.38
2023-08-01T18:48:08.466Z,18.37
2023-08-01T18:50:37.207Z,18.33
2023-08-01T18:53:04.058Z,18.30
2023-08-01T18:55:30.818Z,18.25
2023-08-01T18:58:00.222Z,18.23
2023-08-01T19:00:30.238Z,18.26
2023-08-01T19:02:56.977Z,18.26
2023-08-01T19:05:23.971Z,18.24
2023-08-01T19:07:50.689Z,18.21
2023-08-01T19:10:17.948Z,18.16
2023-08-01T19:12:44.826Z,18.12
2023-08-01T19:15:12.237Z,18.09
2023-08-01T19:17:38.984Z,18.05
2023-08-01T19:20:06.582Z,18.01
2023-08-01T19:22:33.301Z,18.04
2023-08-01T19:25:00.040Z,18.06
2023-08-01T19:27:28.156Z,18.09
2023-08-01T19:29:57.959Z,18.10
2023-08-01T19:32:24.699Z,18.14
2023-08-01T19:34:52.320Z,18.19
2023-08-01T19:37:19.590Z,18.17
2023-08-01T19:39:47.006Z,18.09
2023-08-01T19:42:13.858Z,17.94
2023-08-01T19:44:41.101Z,17.81
2023-08-01T19:47:07.864Z,17.73
2023-08-01T19:49:34.629Z,17.76
2023-08-01T19:52:02.349Z,17.81
2023-08-01T19:54:29.088Z,17.88
2023-08-01T19:56:55.818Z,17.95
2023-08-01T19:59:22.571Z,18.00
2023-08-01T20:01:49.828Z,18.05
2023-08-01T20:04:17.703Z,18.04
2023-08-01T20:06:45.026Z,18.06
2023-08-01T20:09:12.218Z,18.08
2023-08-01T20:11:38.909Z,18.10
2023-08-01T20:14:05.661Z,18.11
2023-08-01T20:16:33.323Z,18.15
2023-08-01T20:19:00.142Z,18.16
2023-08-01T20:21:26.944Z,18.16
2023-08-01T20:23:53.697Z,18.19
2023-08-01T20:26:20.425Z,18.23
2023-08-01T20:28:47.235Z,18.19
2023-08-01T20:31:14.048Z,18.21
2023-08-01T20:33:40.741Z,18.24
2023-08-01T20:36:07.432Z,18.24
2023-08-01T20:38:34.203Z,18.23
2023-08-01T20:41:00.990Z,18.24
2023-08-01T20:43:28.609Z,18.22
2023-08-01T20:45:56.879Z,18.20
2023-08-01T20:48:24.134Z,18.20
2023-08-01T20:50:50.936Z,18.11
2023-08-01T20:53:17.754Z,18.15
2023-08-01T20:55:44.541Z,18.15
2023-08-01T20:58:11.292Z,18.16
2023-08-01T21:00:38.090Z,18.13
2023-08-01T21:03:04.855Z,18.05
2023-08-01T21:05:31.594Z,17.99
2023-08-01T21:07:58.399Z,17.88
2023-08-01T21:10:25.111Z,17.84
2023-08-01T21:12:51.795Z,17.77
2023-08-01T21:15:18.661Z,17.77
2023-08-01T21:17:45.470Z,17.79
2023-08-01T21:20:13.535Z,17.75
2023-08-01T21:22:40.406Z,17.70
2023-08-01T21:25:07.441Z,17.61
2023-08-01T21:27:34.141Z,17.61
2023-08-01T21:30:00.837Z,17.65
2023-08-01T21:32:27.629Z,17.65
2023-08-01T21:34:54.337Z,17.66
2023-08-01T21:37:21.461Z,17.67
2023-08-01T21:39:48.256Z,17.66
2023-08-01T21:42:16.418Z,17.59
2023-08-01T21:44:43.421Z,17.56
2023-08-01T21:47:10.908Z,17.56
2023-08-01T21:49:37.676Z,17.56
2023-08-01T21:52:04.769Z,17.57
2023-08-01T21:54:31.555Z,17.55
2023-08-01T21:56:58.279Z,17.52
2023-08-01T21:59:24.943Z,17.56
2023-08-01T22:01:51.670Z,17.56
2023-08-01T22:04:18.606Z,17.56
2023-08-01T22:06:45.612Z,17.55
2023-08-01T22:09:12.425Z,17.55
2023-08-01T22:11:39.158Z,17.51
2023-08-01T22:14:05.977Z,17.52
2023-08-01T22:16:32.714Z,17.50
2023-08-01T22:18:59.435Z,17.47
2023-08-01T22:21:26.172Z,17.47
2023-08-01T22:23:52.850Z,17.46
2023-08-01T22:26:19.590Z,17.46
2023-08-01T22:28:46.320Z,17.45
2023-08-01T22:31:13.112Z,17.43
2023-08-01T22:33:39.867Z,17.42
2023-08-01T22:36:10.980Z,17.42
2023-08-01T22:38:37.673Z,17.44
2023-08-01T22:41:14.305Z,17.45
2023-08-01T22:43:41.027Z,17.48
2023-08-01T22:46:07.738Z,17.49
2023-08-01T22:48:34.465Z,17.50
2023-08-01T22:51:01.198Z,17.50
2023-08-01T22:53:28.509Z,17.51
2023-08-01T22:55:55.241Z,17.51
2023-08-01T22:58:24.172Z,17.52
2023-08-01T23:00:52.034Z,17.52
2023-08-01T23:03:18.897Z,17.51
2023-08-01T23:05:45.991Z,17.46
2023-08-01T23:08:12.723Z,17.43
2023-08-01T23:10:44.680Z,17.46
2023-08-01T23:13:11.840Z,17.44
2023-08-01T23:15:38.589Z,17.46
2023-08-01T23:18:05.284Z,17.45
2023-08-01T23:20:32.003Z,17.46
2023-08-01T23:22:58.722Z,17.48
2023-08-01T23:25:25.463Z,17.50
2023-08-01T23:27:52.141Z,17.51
2023-08-01T23:30:18.913Z,17.51
2023-08-01T23:32:45.680Z,17.52
2023-08-01T23:35:12.540Z,17.53
2023-08-01T23:37:39.292Z,17.54
2023-08-01T23:40:06.558Z,17.52
2023-08-01T23:42:33.366Z,17.53
2023-08-01T23:45:00.115Z,17.51
2023-08-01T23:47:28.762Z,17.52
2023-08-01T23:49:55.618Z,17.52
2023-08-01T23:52:22.327Z,17.53
2023-08-01T23:54:49.033Z,17.52
2023-08-01T23:57:15.760Z,17.53
2023-08-01T23:59:42.530Z,17.52
